Antelope, Montana
Current Conditions -  °F | °C
As of 12:52 AM on Monday 24 Nov 2014 (Local Time) from KISN Reporting Station
Clear Clear  
Wind Chill: -20°   Ceiling: Unl
Heat Index: -13°   Visibility: 10mi
Dew Point: -16°   Wind: 7mph
Humidity: 83%   Direction: 350°N
Pressure: 29.82"   Gusts: NA
Location:  48.69°N, 104.46°W
Report Text: KISN 240752Z AUTO 35006KT 10SM CLR M13/M16 A2982 RMK AO2 SLP139 T11331156
Loading
Personal Weather Stations






























Interactive Weather Map New forecast layout! Learn more

10-Day Weather Forecast

Advertisements
Track Severe Weather on mobile